sensor_id;sensor_type;location;lat;lon;timestamp;pressure;altitude;pressure_sealevel;temperature;humidity
75166;BME280;63747;48.042;10.088;2023-05-07T00:02:25;95059.97;;;11.98;59.13
75166;BME280;63747;48.042;10.088;2023-05-07T00:05:25;95066.09;;;11.98;59.10
75166;BME280;63747;48.042;10.088;2023-05-07T00:08:26;95068.28;;;11.95;59.29
75166;BME280;63747;48.042;10.088;2023-05-07T00:11:27;95075.63;;;11.93;59.24
75166;BME280;63747;48.042;10.088;2023-05-07T00:14:28;95069.47;;;11.92;59.19
75166;BME280;63747;48.042;10.088;2023-05-07T00:17:29;95060.78;;;11.84;59.28
75166;BME280;63747;48.042;10.088;2023-05-07T00:20:29;95064.06;;;11.71;59.74
75166;BME280;63747;48.042;10.088;2023-05-07T00:23:30;95069.47;;;11.78;59.42
75166;BME280;63747;48.042;10.088;2023-05-07T00:26:30;95063.06;;;11.72;59.73
75166;BME280;63747;48.042;10.088;2023-05-07T00:29:31;95061.88;;;11.75;59.71
75166;BME280;63747;48.042;10.088;2023-05-07T00:32:31;95045.97;;;11.75;59.79
75166;BME280;63747;48.042;10.088;2023-05-07T00:35:32;95047.34;;;11.56;60.09
75166;BME280;63747;48.042;10.088;2023-05-07T00:38:32;95048.88;;;11.35;60.86
75166;BME280;63747;48.042;10.088;2023-05-07T00:41:33;95054.75;;;11.46;60.99
75166;BME280;63747;48.042;10.088;2023-05-07T00:44:33;95055.41;;;11.48;60.61
75166;BME280;63747;48.042;10.088;2023-05-07T00:47:34;95057.50;;;11.52;60.31
75166;BME280;63747;48.042;10.088;2023-05-07T00:50:34;95055.41;;;11.48;60.65
75166;BME280;63747;48.042;10.088;2023-05-07T00:53:35;95054.19;;;11.50;60.43
75166;BME280;63747;48.042;10.088;2023-05-07T00:56:35;95053.28;;;11.43;60.53
75166;BME280;63747;48.042;10.088;2023-05-07T00:59:36;95042.66;;;11.43;60.57
75166;BME280;63747;48.042;10.088;2023-05-07T01:02:40;95039.66;;;11.46;60.49
75166;BME280;63747;48.042;10.088;2023-05-07T01:05:41;95035.50;;;11.43;60.43
75166;BME280;63747;48.042;10.088;2023-05-07T01:08:42;95044.69;;;11.41;60.60
75166;BME280;63747;48.042;10.088;2023-05-07T01:11:43;95038.16;;;11.43;60.56
75166;BME280;63747;48.042;10.088;2023-05-07T01:14:44;95040.09;;;11.35;60.48
75166;BME280;63747;48.042;10.088;2023-05-07T01:17:44;95038.53;;;11.26;60.99
75166;BME280;63747;48.042;10.088;2023-05-07T01:20:45;95033.28;;;11.18;61.15
75166;BME280;63747;48.042;10.088;2023-05-07T01:23:45;95034.28;;;11.02;61.76
75166;BME280;63747;48.042;10.088;2023-05-07T01:26:47;95043.44;;;10.99;61.96
75166;BME280;63747;48.042;10.088;2023-05-07T01:29:47;95034.22;;;11.10;61.47
75166;BME280;63747;48.042;10.088;2023-05-07T01:32:51;95036.84;;;11.10;61.47
75166;BME280;63747;48.042;10.088;2023-05-07T01:35:52;95040.50;;;10.94;61.73
75166;BME280;63747;48.042;10.088;2023-05-07T01:38:53;95039.50;;;10.95;61.77
75166;BME280;63747;48.042;10.088;2023-05-07T01:41:54;95043.25;;;11.01;61.23
75166;BME280;63747;48.042;10.088;2023-05-07T01:44:56;95033.06;;;10.89;61.77
75166;BME280;63747;48.042;10.088;2023-05-07T01:47:58;95029.50;;;10.97;61.28
75166;BME280;63747;48.042;10.088;2023-05-07T01:50:59;95026.53;;;11.00;61.08
75166;BME280;63747;48.042;10.088;2023-05-07T01:53:59;95029.41;;;10.91;61.18
75166;BME280;63747;48.042;10.088;2023-05-07T01:57:00;95034.06;;;10.88;61.23
75166;BME280;63747;48.042;10.088;2023-05-07T02:00:01;95039.03;;;10.92;61.20
75166;BME280;63747;48.042;10.088;2023-05-07T02:03:02;95038.66;;;10.95;61.06
75166;BME280;63747;48.042;10.088;2023-05-07T02:06:03;95045.44;;;10.97;60.99
75166;BME280;63747;48.042;10.088;2023-05-07T02:09:03;95046.81;;;10.93;60.89
75166;BME280;63747;48.042;10.088;2023-05-07T02:12:04;95050.50;;;10.84;61.05
75166;BME280;63747;48.042;10.088;2023-05-07T02:15:05;95044.69;;;10.66;61.65
75166;BME280;63747;48.042;10.088;2023-05-07T02:18:07;95041.03;;;10.67;61.78
75166;BME280;63747;48.042;10.088;2023-05-07T02:21:09;95043.19;;;10.71;61.78
75166;BME280;63747;48.042;10.088;2023-05-07T02:24:09;95038.63;;;10.80;61.65
75166;BME280;63747;48.042;10.088;2023-05-07T02:27:10;95040.34;;;10.73;61.67
75166;BME280;63747;48.042;10.088;2023-05-07T02:30:10;95033.22;;;10.73;61.51
75166;BME280;63747;48.042;10.088;2023-05-07T02:33:11;95026.53;;;10.77;61.33
75166;BME280;63747;48.042;10.088;2023-05-07T02:36:13;95030.06;;;10.70;61.26
75166;BME280;63747;48.042;10.088;2023-05-07T02:39:14;95026.53;;;10.54;62.09
75166;BME280;63747;48.042;10.088;2023-05-07T02:42:15;95029.78;;;10.42;62.22
75166;BME280;63747;48.042;10.088;2023-05-07T02:45:16;95030.09;;;10.47;62.18
75166;BME280;63747;48.042;10.088;2023-05-07T02:48:16;95035.31;;;10.55;61.96
75166;BME280;63747;48.042;10.088;2023-05-07T02:51:20;95041.25;;;10.57;61.66
75166;BME280;63747;48.042;10.088;2023-05-07T02:54:21;95031.28;;;10.44;61.90
75166;BME280;63747;48.042;10.088;2023-05-07T02:57:21;95035.31;;;10.32;62.43
75166;BME280;63747;48.042;10.088;2023-05-07T03:00:22;95028.47;;;10.15;62.74
75166;BME280;63747;48.042;10.088;2023-05-07T03:03:23;95034.94;;;10.12;62.97
75166;BME280;63747;48.042;10.088;2023-05-07T03:06:23;95032.06;;;10.22;62.65
75166;BME280;63747;48.042;10.088;2023-05-07T03:09:24;95033.38;;;10.26;62.36
75166;BME280;63747;48.042;10.088;2023-05-07T03:12:24;95023.41;;;10.28;62.11
75166;BME280;63747;48.042;10.088;2023-05-07T03:15:25;95033.44;;;10.18;62.09
75166;BME280;63747;48.042;10.088;2023-05-07T03:18:25;95029.41;;;9.99;62.74
75166;BME280;63747;48.042;10.088;2023-05-07T03:21:26;95031.09;;;9.92;63.00
75166;BME280;63747;48.042;10.088;2023-05-07T03:24:27;95034.69;;;9.99;62.72
75166;BME280;63747;48.042;10.088;2023-05-07T03:27:27;95029.56;;;9.97;62.59
75166;BME280;63747;48.042;10.088;2023-05-07T03:30:28;95039.59;;;9.79;63.20
75166;BME280;63747;48.042;10.088;2023-05-07T03:33:28;95040.00;;;9.60;64.13
75166;BME280;63747;48.042;10.088;2023-05-07T03:36:29;95048.13;;;9.58;64.14
75166;BME280;63747;48.042;10.088;2023-05-07T03:39:29;95044.91;;;9.71;63.68
75166;BME280;63747;48.042;10.088;2023-05-07T03:42:30;95039.44;;;9.72;63.39
75166;BME280;63747;48.042;10.088;2023-05-07T03:45:30;95034.66;;;9.68;63.21
75166;BME280;63747;48.042;10.088;2023-05-07T03:48:31;95040.34;;;9.57;63.55
75166;BME280;63747;48.042;10.088;2023-05-07T03:51:31;95039.19;;;9.59;63.70
75166;BME280;63747;48.042;10.088;2023-05-07T03:54:32;95043.28;;;9.70;63.15
75166;BME280;63747;48.042;10.088;2023-05-07T03:57:33;95039.97;;;9.68;63.00
75166;BME280;63747;48.042;10.088;2023-05-07T04:00:33;95056.94;;;9.42;63.57
75166;BME280;63747;48.042;10.088;2023-05-07T04:03:38;95055.28;;;9.25;64.09
75166;BME280;63747;48.042;10.088;2023-05-07T04:06:38;95062.25;;;9.18;64.27
75166;BME280;63747;48.042;10.088;2023-05-07T04:09:39;95048.88;;;9.11;64.19
75166;BME280;63747;48.042;10.088;2023-05-07T04:12:39;95055.94;;;9.19;64.03
75166;BME280;63747;48.042;10.088;2023-05-07T04:15:39;95063.22;;;9.33;63.64
75166;BME280;63747;48.042;10.088;2023-05-07T04:18:41;95058.59;;;9.43;63.37
75166;BME280;63747;48.042;10.088;2023-05-07T04:21:41;95060.38;;;9.51;63.17
75166;BME280;63747;48.042;10.088;2023-05-07T04:24:42;95064.81;;;9.59;62.76
75166;BME280;63747;48.042;10.088;2023-05-07T04:27:42;95058.72;;;9.50;62.93
75166;BME280;63747;48.042;10.088;2023-05-07T04:30:43;95063.06;;;9.43;63.35
75166;BME280;63747;48.042;10.088;2023-05-07T04:33:43;95068.81;;;9.46;63.06
75166;BME280;63747;48.042;10.088;2023-05-07T04:36:44;95068.00;;;9.46;63.22
75166;BME280;63747;48.042;10.088;2023-05-07T04:39:44;95069.78;;;9.53;63.20
75166;BME280;63747;48.042;10.088;2023-05-07T04:42:45;95068.78;;;9.63;62.99
75166;BME280;63747;48.042;10.088;2023-05-07T04:45:45;95060.31;;;9.67;62.99
75166;BME280;63747;48.042;10.088;2023-05-07T04:48:46;95062.75;;;9.77;62.93
75166;BME280;63747;48.042;10.088;2023-05-07T04:51:46;95061.91;;;9.85;62.83
75166;BME280;63747;48.042;10.088;2023-05-07T04:54:47;95058.03;;;9.95;62.81
75166;BME280;63747;48.042;10.088;2023-05-07T04:57:47;95067.25;;;10.07;62.66
75166;BME280;63747;48.042;10.088;2023-05-07T05:00:48;95061.38;;;10.20;62.57
75166;BME280;63747;48.042;10.088;2023-05-07T05:03:48;95071.22;;;10.34;62.42
75166;BME280;63747;48.042;10.088;2023-05-07T05:06:49;95075.78;;;10.49;62.39
75166;BME280;63747;48.042;10.088;2023-05-07T05:09:49;95076.50;;;10.66;62.37
75166;BME280;63747;48.042;10.088;2023-05-07T05:12:50;95074.75;;;10.81;62.45
75166;BME280;63747;48.042;10.088;2023-05-07T05:15:50;95077.44;;;10.96;62.27
75166;BME280;63747;48.042;10.088;2023-05-07T05:18:51;95078.78;;;11.14;62.19
75166;BME280;63747;48.042;10.088;2023-05-07T05:21:52;95094.00;;;11.35;61.69
75166;BME280;63747;48.042;10.088;2023-05-07T05:24:52;95094.59;;;11.60;61.44
75166;BME280;63747;48.042;10.088;2023-05-07T05:27:53;95088.72;;;11.80;61.54
75166;BME280;63747;48.042;10.088;2023-05-07T05:30:53;95093.31;;;12.01;61.32
75166;BME280;63747;48.042;10.088;2023-05-07T05:33:54;95095.03;;;12.23;61.41
75166;BME280;63747;48.042;10.088;2023-05-07T05:36:54;95089.38;;;12.47;61.34
75166;BME280;63747;48.042;10.088;2023-05-07T05:39:55;95092.50;;;12.72;61.12
75166;BME280;63747;48.042;10.088;2023-05-07T05:42:55;95092.69;;;12.92;61.21
75166;BME280;63747;48.042;10.088;2023-05-07T05:45:56;95088.84;;;13.16;60.94
75166;BME280;63747;48.042;10.088;2023-05-07T05:48:57;95095.88;;;13.24;60.66
75166;BME280;63747;48.042;10.088;2023-05-07T05:51:58;95088.44;;;12.98;61.21
75166;BME280;63747;48.042;10.088;2023-05-07T05:54:58;95092.88;;;12.69;61.82
75166;BME280;63747;48.042;10.088;2023-05-07T05:57:59;95102.94;;;12.74;61.83
75166;BME280;63747;48.042;10.088;2023-05-07T06:01:00;95097.31;;;12.62;62.79
75166;BME280;63747;48.042;10.088;2023-05-07T06:04:02;95100.97;;;12.61;63.38
75166;BME280;63747;48.042;10.088;2023-05-07T06:07:03;95104.97;;;12.72;63.35
75166;BME280;63747;48.042;10.088;2023-05-07T06:10:03;95104.97;;;12.72;63.46
75166;BME280;63747;48.042;10.088;2023-05-07T06:13:04;95105.56;;;12.52;64.40
75166;BME280;63747;48.042;10.088;2023-05-07T06:16:05;95107.56;;;12.65;64.34
75166;BME280;63747;48.042;10.088;2023-05-07T06:19:05;95111.25;;;12.86;63.80
75166;BME280;63747;48.042;10.088;2023-05-07T06:22:06;95098.91;;;13.21;63.31
75166;BME280;63747;48.042;10.088;2023-05-07T06:25:07;95095.38;;;13.70;62.18
75166;BME280;63747;48.042;10.088;2023-05-07T06:28:08;95099.72;;;14.12;61.71
75166;BME280;63747;48.042;10.088;2023-05-07T06:31:11;95099.03;;;14.38;61.06
75166;BME280;63747;48.042;10.088;2023-05-07T06:34:12;95096.25;;;14.66;60.51
75166;BME280;63747;48.042;10.088;2023-05-07T06:37:14;95083.78;;;14.93;60.36
75166;BME280;63747;48.042;10.088;2023-05-07T06:40:15;95090.00;;;15.27;59.95
75166;BME280;63747;48.042;10.088;2023-05-07T06:43:15;95090.81;;;15.47;59.36
75166;BME280;63747;48.042;10.088;2023-05-07T06:46:16;95098.00;;;15.60;59.09
75166;BME280;63747;48.042;10.088;2023-05-07T06:49:16;95099.63;;;15.81;58.77
75166;BME280;63747;48.042;10.088;2023-05-07T06:52:17;95102.03;;;16.02;58.67
75166;BME280;63747;48.042;10.088;2023-05-07T06:55:17;95101.97;;;16.35;58.40
75166;BME280;63747;48.042;10.088;2023-05-07T06:58:19;95095.69;;;16.61;57.44
75166;BME280;63747;48.042;10.088;2023-05-07T07:01:19;95098.72;;;16.71;57.41
75166;BME280;63747;48.042;10.088;2023-05-07T07:04:20;95107.00;;;17.01;57.57
75166;BME280;63747;48.042;10.088;2023-05-07T07:07:22;95108.41;;;17.10;56.94
75166;BME280;63747;48.042;10.088;2023-05-07T07:10:23;95098.91;;;17.15;57.31
75166;BME280;63747;48.042;10.088;2023-05-07T07:13:23;95112.19;;;17.53;56.99
75166;BME280;63747;48.042;10.088;2023-05-07T07:16:24;95106.38;;;17.81;56.85
75166;BME280;63747;48.042;10.088;2023-05-07T07:19:25;95107.44;;;18.05;56.35
75166;BME280;63747;48.042;10.088;2023-05-07T07:22:26;95106.53;;;18.11;56.31
75166;BME280;63747;48.042;10.088;2023-05-07T07:25:26;95103.03;;;18.29;55.79
75166;BME280;63747;48.042;10.088;2023-05-07T07:28:27;95096.03;;;18.46;55.97
75166;BME280;63747;48.042;10.088;2023-05-07T07:31:27;95097.50;;;18.79;55.50
75166;BME280;63747;48.042;10.088;2023-05-07T07:34:28;95095.59;;;18.97;55.33
75166;BME280;63747;48.042;10.088;2023-05-07T07:37:28;95096.31;;;19.05;53.81
75166;BME280;63747;48.042;10.088;2023-05-07T07:40:29;95095.91;;;18.71;55.28
75166;BME280;63747;48.042;10.088;2023-05-07T07:43:30;95098.66;;;18.83;54.89
75166;BME280;63747;48.042;10.088;2023-05-07T07:46:30;95105.91;;;18.82;55.14
75166;BME280;63747;48.042;10.088;2023-05-07T07:49:31;95108.88;;;18.92;54.23
75166;BME280;63747;48.042;10.088;2023-05-07T07:52:31;95108.59;;;19.12;55.24
75166;BME280;63747;48.042;10.088;2023-05-07T07:55:32;95098.97;;;19.35;54.28
75166;BME280;63747;48.042;10.088;2023-05-07T07:58:32;95095.66;;;19.74;54.31
75166;BME280;63747;48.042;10.088;2023-05-07T08:01:35;95098.22;;;20.04;53.56
75166;BME280;63747;48.042;10.088;2023-05-07T08:04:36;95092.84;;;20.40;53.57
75166;BME280;63747;48.042;10.088;2023-05-07T08:07:37;95107.19;;;20.57;53.39
75166;BME280;63747;48.042;10.088;2023-05-07T08:10:37;95101.94;;;20.79;52.95
75166;BME280;63747;48.042;10.088;2023-05-07T08:13:39;95101.56;;;20.87;53.02
75166;BME280;63747;48.042;10.088;2023-05-07T08:16:39;95106.78;;;21.05;53.11
75166;BME280;63747;48.042;10.088;2023-05-07T08:19:40;95106.75;;;21.17;52.54
75166;BME280;63747;48.042;10.088;2023-05-07T08:22:40;95104.19;;;21.10;52.98
75166;BME280;63747;48.042;10.088;2023-05-07T08:25:41;95109.31;;;21.24;52.34
75166;BME280;63747;48.042;10.088;2023-05-07T08:28:42;95099.69;;;21.44;52.54
75166;BME280;63747;48.042;10.088;2023-05-07T08:31:43;95115.16;;;21.83;52.06
75166;BME280;63747;48.042;10.088;2023-05-07T08:34:43;95113.78;;;21.97;51.32
75166;BME280;63747;48.042;10.088;2023-05-07T08:37:44;95116.72;;;21.95;50.79
75166;BME280;63747;48.042;10.088;2023-05-07T08:40:44;95113.19;;;21.78;50.75
75166;BME280;63747;48.042;10.088;2023-05-07T08:43:46;95108.03;;;21.77;49.36
75166;BME280;63747;48.042;10.088;2023-05-07T08:46:47;95118.75;;;21.71;50.02
75166;BME280;63747;48.042;10.088;2023-05-07T08:49:51;95115.97;;;22.00;50.96
75166;BME280;63747;48.042;10.088;2023-05-07T08:52:52;95115.00;;;22.45;50.78
75166;BME280;63747;48.042;10.088;2023-05-07T08:55:52;95119.53;;;23.05;49.93
75166;BME280;63747;48.042;10.088;2023-05-07T08:58:53;95120.63;;;22.60;48.57
75166;BME280;63747;48.042;10.088;2023-05-07T09:01:56;95122.72;;;22.36;50.68
75166;BME280;63747;48.042;10.088;2023-05-07T09:04:57;95117.44;;;22.63;50.85
75166;BME280;63747;48.042;10.088;2023-05-07T09:08:04;95116.34;;;22.86;50.04
75166;BME280;63747;48.042;10.088;2023-05-07T09:11:05;95113.81;;;23.01;49.27
75166;BME280;63747;48.042;10.088;2023-05-07T09:14:06;95110.94;;;23.35;49.75
75166;BME280;63747;48.042;10.088;2023-05-07T09:17:06;95110.75;;;23.42;49.62
75166;BME280;63747;48.042;10.088;2023-05-07T09:20:07;95109.72;;;23.48;49.49
75166;BME280;63747;48.042;10.088;2023-05-07T09:23:07;95105.66;;;23.50;49.40
75166;BME280;63747;48.042;10.088;2023-05-07T09:26:08;95116.66;;;23.17;48.44
75166;BME280;63747;48.042;10.088;2023-05-07T09:29:12;95111.50;;;23.37;49.26
75166;BME280;63747;48.042;10.088;2023-05-07T09:32:12;95110.66;;;23.09;49.05
75166;BME280;63747;48.042;10.088;2023-05-07T09:35:15;95111.97;;;23.07;48.62
75166;BME280;63747;48.042;10.088;2023-05-07T09:38:17;95104.94;;;23.06;47.84
75166;BME280;63747;48.042;10.088;2023-05-07T09:41:19;95108.72;;;23.05;47.29
75166;BME280;63747;48.042;10.088;2023-05-07T09:44:21;95111.53;;;23.15;47.04
75166;BME280;63747;48.042;10.088;2023-05-07T09:47:23;95115.00;;;23.38;45.70
75166;BME280;63747;48.042;10.088;2023-05-07T09:50:28;95109.69;;;23.75;47.22
75166;BME280;63747;48.042;10.088;2023-05-07T09:53:29;95112.72;;;24.15;47.42
75166;BME280;63747;48.042;10.088;2023-05-07T09:56:30;95109.22;;;24.62;47.15
75166;BME280;63747;48.042;10.088;2023-05-07T09:59:31;95101.56;;;24.54;46.87
75166;BME280;63747;48.042;10.088;2023-05-07T10:02:32;95103.25;;;24.60;47.54
75166;BME280;63747;48.042;10.088;2023-05-07T10:05:35;95109.84;;;24.85;47.54
75166;BME280;63747;48.042;10.088;2023-05-07T10:08:36;95111.78;;;24.89;46.54
75166;BME280;63747;48.042;10.088;2023-05-07T10:11:37;95099.78;;;24.28;46.50
75166;BME280;63747;48.042;10.088;2023-05-07T10:14:38;95091.97;;;23.62;46.26
75166;BME280;63747;48.042;10.088;2023-05-07T10:17:39;95095.03;;;23.17;46.79
75166;BME280;63747;48.042;10.088;2023-05-07T10:20:40;95102.13;;;22.96;47.04
75166;BME280;63747;48.042;10.088;2023-05-07T10:23:44;95089.22;;;23.57;47.54
75166;BME280;63747;48.042;10.088;2023-05-07T10:26:45;95096.91;;;23.70;43.47
75166;BME280;63747;48.042;10.088;2023-05-07T10:33:03;95095.56;;;23.14;46.09
75166;BME280;63747;48.042;10.088;2023-05-07T10:36:06;95094.91;;;23.87;46.14
75166;BME280;63747;48.042;10.088;2023-05-07T10:39:07;95094.66;;;24.26;45.37
75166;BME280;63747;48.042;10.088;2023-05-07T10:42:09;95089.47;;;24.25;45.93
75166;BME280;63747;48.042;10.088;2023-05-07T10:45:13;95087.97;;;23.70;44.15
75166;BME280;63747;48.042;10.088;2023-05-07T10:48:15;95090.44;;;23.39;45.68
75166;BME280;63747;48.042;10.088;2023-05-07T10:51:19;95084.69;;;23.62;46.21
75166;BME280;63747;48.042;10.088;2023-05-07T10:54:23;95078.75;;;23.33;45.59
75166;BME280;63747;48.042;10.088;2023-05-07T10:57:36;95078.00;;;23.16;44.84
75166;BME280;63747;48.042;10.088;2023-05-07T11:00:45;95069.13;;;22.94;44.97
75166;BME280;63747;48.042;10.088;2023-05-07T11:10:09;95073.63;;;23.69;45.48
75166;BME280;63747;48.042;10.088;2023-05-07T11:13:09;95069.84;;;24.02;44.46
75166;BME280;63747;48.042;10.088;2023-05-07T11:16:16;95066.06;;;24.03;46.39
75166;BME280;63747;48.042;10.088;2023-05-07T11:19:17;95070.50;;;24.20;46.38
75166;BME280;63747;48.042;10.088;2023-05-07T11:22:38;95069.78;;;23.97;47.15
75166;BME280;63747;48.042;10.088;2023-05-07T11:25:41;95073.03;;;23.94;47.12
75166;BME280;63747;48.042;10.088;2023-05-07T11:28:43;95073.59;;;23.96;47.09
75166;BME280;63747;48.042;10.088;2023-05-07T11:31:43;95063.72;;;23.80;45.69
75166;BME280;63747;48.042;10.088;2023-05-07T11:34:44;95068.25;;;23.74;46.56
75166;BME280;63747;48.042;10.088;2023-05-07T11:37:45;95063.22;;;23.88;46.54
75166;BME280;63747;48.042;10.088;2023-05-07T11:43:57;95068.72;;;23.61;45.87
75166;BME280;63747;48.042;10.088;2023-05-07T11:46:58;95061.09;;;23.26;46.42
75166;BME280;63747;48.042;10.088;2023-05-07T11:50:02;95054.03;;;23.52;46.79
75166;BME280;63747;48.042;10.088;2023-05-07T11:53:09;95060.28;;;24.37;46.55
75166;BME280;63747;48.042;10.088;2023-05-07T11:56:11;95067.56;;;24.26;45.98
75166;BME280;63747;48.042;10.088;2023-05-07T11:59:12;95062.00;;;23.69;45.11
75166;BME280;63747;48.042;10.088;2023-05-07T12:02:17;95067.09;;;23.97;46.05
75166;BME280;63747;48.042;10.088;2023-05-07T12:05:18;95054.97;;;24.57;46.35
75166;BME280;63747;48.042;10.088;2023-05-07T12:08:19;95045.94;;;24.41;44.80
75166;BME280;63747;48.042;10.088;2023-05-07T12:11:23;95049.69;;;24.30;45.50
75166;BME280;63747;48.042;10.088;2023-05-07T12:14:27;95048.56;;;24.74;45.18
75166;BME280;63747;48.042;10.088;2023-05-07T12:17:28;95061.75;;;24.55;44.10
75166;BME280;63747;48.042;10.088;2023-05-07T12:20:29;95050.19;;;24.75;44.69
75166;BME280;63747;48.042;10.088;2023-05-07T12:23:29;95054.19;;;24.62;44.44
75166;BME280;63747;48.042;10.088;2023-05-07T12:26:30;95045.44;;;25.22;44.73
75166;BME280;63747;48.042;10.088;2023-05-07T12:29:31;95041.63;;;25.39;44.19
75166;BME280;63747;48.042;10.088;2023-05-07T12:32:31;95036.22;;;25.44;44.92
75166;BME280;63747;48.042;10.088;2023-05-07T12:35:40;95042.16;;;25.41;45.05
75166;BME280;63747;48.042;10.088;2023-05-07T12:38:41;95042.75;;;25.28;45.18
75166;BME280;63747;48.042;10.088;2023-05-07T12:41:54;95035.13;;;25.50;44.80
75166;BME280;63747;48.042;10.088;2023-05-07T12:44:55;95035.13;;;25.70;44.55
75166;BME280;63747;48.042;10.088;2023-05-07T12:47:55;95028.63;;;25.56;44.45
75166;BME280;63747;48.042;10.088;2023-05-07T12:50:56;95032.97;;;25.62;45.23
75166;BME280;63747;48.042;10.088;2023-05-07T12:53:57;95034.31;;;25.49;43.07
75166;BME280;63747;48.042;10.088;2023-05-07T12:57:07;95032.31;;;24.89;43.34
75166;BME280;63747;48.042;10.088;2023-05-07T13:00:08;95032.97;;;24.49;47.31
75166;BME280;63747;48.042;10.088;2023-05-07T13:03:10;95019.94;;;24.45;46.69
75166;BME280;63747;48.042;10.088;2023-05-07T13:06:10;95025.25;;;24.83;46.57
75166;BME280;63747;48.042;10.088;2023-05-07T13:09:12;95017.13;;;24.93;46.36
75166;BME280;63747;48.042;10.088;2023-05-07T13:12:13;95019.38;;;25.32;46.26
75166;BME280;63747;48.042;10.088;2023-05-07T13:15:13;95020.47;;;25.31;46.11
75166;BME280;63747;48.042;10.088;2023-05-07T13:18:14;95017.72;;;25.10;46.23
75166;BME280;63747;48.042;10.088;2023-05-07T13:21:15;95015.28;;;25.09;46.62
75166;BME280;63747;48.042;10.088;2023-05-07T13:24:15;95004.69;;;25.12;46.37
75166;BME280;63747;48.042;10.088;2023-05-07T13:27:16;95007.38;;;24.87;46.10
75166;BME280;63747;48.042;10.088;2023-05-07T13:30:16;95013.00;;;24.65;46.99
75166;BME280;63747;48.042;10.088;2023-05-07T13:33:17;95013.72;;;24.40;47.47
75166;BME280;63747;48.042;10.088;2023-05-07T13:36:17;95010.44;;;24.33;47.24
75166;BME280;63747;48.042;10.088;2023-05-07T13:39:18;95012.81;;;24.24;48.17
75166;BME280;63747;48.042;10.088;2023-05-07T13:42:19;95010.53;;;24.01;47.67
75166;BME280;63747;48.042;10.088;2023-05-07T13:45:19;95008.19;;;23.77;46.55
75166;BME280;63747;48.042;10.088;2023-05-07T13:48:20;95015.56;;;23.87;47.30
75166;BME280;63747;48.042;10.088;2023-05-07T13:51:21;95014.88;;;24.02;47.67
75166;BME280;63747;48.042;10.088;2023-05-07T13:54:21;95015.69;;;24.02;48.37
75166;BME280;63747;48.042;10.088;2023-05-07T13:57:22;95010.34;;;24.12;48.10
75166;BME280;63747;48.042;10.088;2023-05-07T14:00:23;95013.13;;;24.38;47.40
75166;BME280;63747;48.042;10.088;2023-05-07T14:03:23;95020.75;;;24.41;48.05
75166;BME280;63747;48.042;10.088;2023-05-07T14:06:24;95022.81;;;24.24;47.66
75166;BME280;63747;48.042;10.088;2023-05-07T14:09:24;95022.25;;;24.16;47.07
75166;BME280;63747;48.042;10.088;2023-05-07T14:12:25;95019.28;;;24.18;47.41
75166;BME280;63747;48.042;10.088;2023-05-07T14:15:25;95011.03;;;23.98;48.09
75166;BME280;63747;48.042;10.088;2023-05-07T14:18:26;95011.56;;;23.57;47.36
75166;BME280;63747;48.042;10.088;2023-05-07T14:21:28;94999.81;;;23.42;48.18
75166;BME280;63747;48.042;10.088;2023-05-07T14:24:30;95000.41;;;23.49;46.63
75166;BME280;63747;48.042;10.088;2023-05-07T14:27:30;94995.66;;;23.29;47.82
75166;BME280;63747;48.042;10.088;2023-05-07T14:30:31;94989.03;;;23.15;48.17
75166;BME280;63747;48.042;10.088;2023-05-07T14:33:31;94984.50;;;22.93;48.50
75166;BME280;63747;48.042;10.088;2023-05-07T14:36:32;94979.59;;;22.85;48.56
75166;BME280;63747;48.042;10.088;2023-05-07T14:39:32;94976.47;;;23.03;48.74
75166;BME280;63747;48.042;10.088;2023-05-07T14:42:33;94983.50;;;22.99;48.38
75166;BME280;63747;48.042;10.088;2023-05-07T14:45:33;94976.09;;;22.90;45.40
75166;BME280;63747;48.042;10.088;2023-05-07T14:48:34;94959.66;;;22.64;47.29
75166;BME280;63747;48.042;10.088;2023-05-07T14:51:34;94955.97;;;22.75;47.84
75166;BME280;63747;48.042;10.088;2023-05-07T14:54:37;94957.16;;;22.85;47.15
75166;BME280;63747;48.042;10.088;2023-05-07T14:57:38;94962.63;;;22.95;47.50
75166;BME280;63747;48.042;10.088;2023-05-07T15:00:39;94973.75;;;22.98;47.89
75166;BME280;63747;48.042;10.088;2023-05-07T15:03:39;94969.66;;;22.96;47.45
75166;BME280;63747;48.042;10.088;2023-05-07T15:06:40;94971.97;;;22.82;47.36
75166;BME280;63747;48.042;10.088;2023-05-07T15:09:41;94974.38;;;22.78;47.58
75166;BME280;63747;48.042;10.088;2023-05-07T15:12:42;94978.66;;;22.74;47.35
75166;BME280;63747;48.042;10.088;2023-05-07T15:15:42;94984.00;;;22.69;48.14
75166;BME280;63747;48.042;10.088;2023-05-07T15:18:44;94979.56;;;22.58;48.23
75166;BME280;63747;48.042;10.088;2023-05-07T15:21:44;94968.19;;;22.34;48.21
75166;BME280;63747;48.042;10.088;2023-05-07T15:24:45;94966.47;;;22.23;47.91
75166;BME280;63747;48.042;10.088;2023-05-07T15:27:45;94964.06;;;22.05;48.33
75166;BME280;63747;48.042;10.088;2023-05-07T15:30:46;94973.63;;;21.90;48.29
75166;BME280;63747;48.042;10.088;2023-05-07T15:33:46;94980.81;;;21.68;48.40
75166;BME280;63747;48.042;10.088;2023-05-07T15:36:47;94988.78;;;21.58;49.09
75166;BME280;63747;48.042;10.088;2023-05-07T15:39:48;94985.78;;;21.37;49.31
75166;BME280;63747;48.042;10.088;2023-05-07T15:42:48;95001.03;;;21.32;48.71
75166;BME280;63747;48.042;10.088;2023-05-07T15:45:49;94995.72;;;21.20;48.87
75166;BME280;63747;48.042;10.088;2023-05-07T15:48:49;94989.00;;;21.06;49.13
75166;BME280;63747;48.042;10.088;2023-05-07T15:51:50;95000.59;;;20.89;49.02
75166;BME280;63747;48.042;10.088;2023-05-07T15:54:52;95045.63;;;20.77;48.60
75166;BME280;63747;48.042;10.088;2023-05-07T15:57:52;95053.72;;;20.25;48.50
75166;BME280;63747;48.042;10.088;2023-05-07T16:00:54;95053.16;;;18.88;47.25